createdAt,value
2022-11-15T00:00:56.396Z,9.00
2022-11-15T00:03:25.206Z,9.32
2022-11-15T00:05:52.237Z,11.48
2022-11-15T00:08:19.347Z,9.65
2022-11-15T00:11:02.432Z,11.55
2022-11-15T00:13:30.551Z,9.98
2022-11-15T00:15:59.573Z,10.88
2022-11-15T00:18:26.564Z,10.10
2022-11-15T00:20:53.399Z,9.63
2022-11-15T00:23:20.297Z,9.98
2022-11-15T00:25:46.940Z,10.13
2022-11-15T00:28:13.529Z,10.43
2022-11-15T00:30:40.167Z,11.10
2022-11-15T00:33:07.549Z,11.30
2022-11-15T00:35:35.464Z,12.65
2022-11-15T00:38:02.838Z,11.50
2022-11-15T00:40:29.847Z,12.02
2022-11-15T00:42:56.762Z,11.85
2022-11-15T00:45:24.430Z,12.00
2022-11-15T00:47:51.561Z,12.43
2022-11-15T00:50:18.610Z,12.02
2022-11-15T00:52:45.539Z,12.63
2022-11-15T00:55:17.209Z,11.35
2022-11-15T00:57:44.666Z,8.75
2022-11-15T01:00:11.937Z,10.70
2022-11-15T01:02:41.751Z,9.13
2022-11-15T01:05:09.069Z,10.57
2022-11-15T01:07:35.798Z,11.13
2022-11-15T01:10:02.461Z,11.70
2022-11-15T01:12:29.129Z,13.05
2022-11-15T01:14:55.753Z,11.82
2022-11-15T01:17:22.504Z,11.40
2022-11-15T01:19:49.177Z,10.75
2022-11-15T01:22:16.126Z,10.48
2022-11-15T01:24:42.706Z,10.98
2022-11-15T01:27:13.052Z,10.35
2022-11-15T01:29:39.691Z,10.57
2022-11-15T01:32:06.431Z,11.68
2022-11-15T01:34:33.508Z,9.52
2022-11-15T01:37:00.239Z,9.70
2022-11-15T01:39:27.631Z,9.52
2022-11-15T01:41:54.654Z,9.60
2022-11-15T01:44:36.472Z,10.32
2022-11-15T01:47:07.571Z,11.23
2022-11-15T01:49:38.783Z,11.02
2022-11-15T01:52:09.895Z,10.57
2022-11-15T01:54:36.793Z,9.65
2022-11-15T01:57:09.031Z,10.80
2022-11-15T01:59:37.901Z,10.48
2022-11-15T02:02:04.509Z,9.35
2022-11-15T02:04:38.937Z,10.98
2022-11-15T02:07:07.620Z,9.70
2022-11-15T02:09:34.312Z,10.25
2022-11-15T02:12:01.124Z,10.20
2022-11-15T02:14:29.626Z,9.82
2022-11-15T02:17:28.164Z,9.82
2022-11-15T02:20:11.869Z,8.75
2022-11-15T02:23:01.649Z,8.40
2022-11-15T02:25:56.494Z,9.23
2022-11-15T02:28:43.988Z,9.48
2022-11-15T02:31:25.821Z,8.82
2022-11-15T02:34:06.004Z,9.95
2022-11-15T02:36:55.384Z,9.48
2022-11-15T02:39:42.209Z,10.23
2022-11-15T02:42:32.416Z,8.82
2022-11-15T02:45:04.844Z,8.68
2022-11-15T02:47:38.922Z,9.85
2022-11-15T02:50:10.881Z,10.07
2022-11-15T02:52:37.513Z,10.30
2022-11-15T02:55:04.715Z,10.85
2022-11-15T02:57:46.536Z,9.75
2022-11-15T03:00:17.516Z,9.13
2022-11-15T03:03:13.708Z,9.40
2022-11-15T03:06:03.803Z,8.98
2022-11-15T03:08:36.982Z,9.63
2022-11-15T03:11:09.075Z,9.65
2022-11-15T03:13:51.980Z,10.52
2022-11-15T03:16:28.670Z,10.23
2022-11-15T03:19:04.372Z,9.43
2022-11-15T03:21:34.064Z,10.20
2022-11-15T03:24:05.035Z,10.05
2022-11-15T03:26:34.060Z,10.20
2022-11-15T03:29:07.621Z,9.93
2022-11-15T03:31:54.643Z,9.10
2022-11-15T03:34:33.288Z,9.65
2022-11-15T03:37:00.132Z,10.38
2022-11-15T03:39:27.475Z,10.45
2022-11-15T03:41:58.676Z,10.52
2022-11-15T03:44:34.133Z,10.63
2022-11-15T03:47:24.833Z,9.40
2022-11-15T03:49:54.724Z,9.57
2022-11-15T03:52:22.804Z,10.43
2022-11-15T03:54:53.546Z,9.75
2022-11-15T03:57:20.337Z,10.05
2022-11-15T03:59:47.009Z,11.02
2022-11-15T04:02:13.717Z,10.82
2022-11-15T04:04:41.033Z,11.02
2022-11-15T04:07:07.725Z,11.00
2022-11-15T04:09:34.773Z,11.10
2022-11-15T04:12:01.409Z,11.00
2022-11-15T04:14:28.086Z,10.75
2022-11-15T04:16:54.688Z,11.07
2022-11-15T04:19:36.497Z,10.95
2022-11-15T04:22:18.294Z,10.60
2022-11-15T04:24:44.886Z,11.07
2022-11-15T04:27:13.770Z,11.02
2022-11-15T04:29:40.494Z,11.00
2022-11-15T04:32:08.301Z,11.30
2022-11-15T04:34:35.342Z,11.95
2022-11-15T04:37:17.329Z,10.50
2022-11-15T04:39:44.472Z,12.00
2022-11-15T04:42:11.908Z,11.43
2022-11-15T04:44:38.518Z,11.35
2022-11-15T04:47:05.494Z,11.23
2022-11-15T04:49:32.300Z,10.35
2022-11-15T04:51:58.980Z,10.88
2022-11-15T04:54:25.702Z,10.15
2022-11-15T04:56:52.391Z,11.65
2022-11-15T04:59:19.028Z,9.93
2022-11-15T05:01:45.776Z,10.23
2022-11-15T05:04:22.814Z,10.20
2022-11-15T05:06:51.512Z,10.25
2022-11-15T05:09:19.567Z,11.30
2022-11-15T05:11:46.631Z,11.00
2022-11-15T05:14:14.033Z,10.70
2022-11-15T05:16:40.797Z,11.00
2022-11-15T05:19:07.774Z,11.68
2022-11-15T05:21:35.169Z,12.02
2022-11-15T05:24:02.362Z,16.58
2022-11-15T05:26:29.089Z,13.93
2022-11-15T05:29:01.205Z,11.52
2022-11-15T05:31:31.869Z,11.63
2022-11-15T05:34:01.028Z,11.43
2022-11-15T05:36:32.196Z,12.52
2022-11-15T05:38:58.880Z,16.45
2022-11-15T05:41:32.256Z,18.75
2022-11-15T05:43:59.700Z,14.75
2022-11-15T05:46:26.759Z,15.40
2022-11-15T05:48:54.695Z,14.65
2022-11-15T05:51:23.343Z,16.38
2022-11-15T05:53:52.433Z,16.88
2022-11-15T05:56:19.063Z,15.43
2022-11-15T05:58:45.775Z,16.08
2022-11-15T06:01:12.567Z,16.83
2022-11-15T06:03:39.174Z,15.00
2022-11-15T06:06:06.234Z,14.15
2022-11-15T06:08:32.873Z,14.43
2022-11-15T06:11:06.113Z,14.75
2022-11-15T06:13:33.913Z,15.00
2022-11-15T06:16:02.528Z,15.07
2022-11-15T06:18:29.377Z,15.40
2022-11-15T06:20:59.870Z,14.60
2022-11-15T06:23:26.884Z,14.30
2022-11-15T06:25:53.464Z,17.50
2022-11-15T06:28:20.215Z,17.25
2022-11-15T06:30:52.041Z,15.93
2022-11-15T06:33:20.090Z,11.88
2022-11-15T06:35:46.752Z,12.00
2022-11-15T06:38:13.439Z,14.40
2022-11-15T06:40:40.733Z,14.98
2022-11-15T06:43:07.463Z,13.27
2022-11-15T06:45:34.062Z,13.85
2022-11-15T06:48:00.675Z,14.23
2022-11-15T06:50:27.337Z,14.68
2022-11-15T06:52:53.960Z,15.88
2022-11-15T06:55:20.588Z,16.70
2022-11-15T06:57:49.093Z,18.23
2022-11-15T07:00:16.934Z,18.02
2022-11-15T07:02:43.710Z,18.15
2022-11-15T07:05:10.494Z,19.05
2022-11-15T07:07:37.263Z,18.05
2022-11-15T07:10:04.228Z,17.35
2022-11-15T07:12:30.777Z,20.08
2022-11-15T07:14:57.372Z,19.48
2022-11-15T07:17:23.965Z,21.08
2022-11-15T07:19:50.598Z,23.38
2022-11-15T07:22:17.194Z,23.58
2022-11-15T07:24:43.754Z,24.45
2022-11-15T07:27:10.471Z,26.35
2022-11-15T07:29:37.159Z,25.67
2022-11-15T07:32:03.905Z,26.63
2022-11-15T07:34:30.633Z,26.60
2022-11-15T07:36:57.453Z,28.73
2022-11-15T07:39:24.154Z,30.60
2022-11-15T07:42:10.690Z,28.08
2022-11-15T07:44:37.289Z,27.08
2022-11-15T07:47:03.914Z,27.77
2022-11-15T07:49:30.511Z,31.80
2022-11-15T07:51:57.206Z,29.48
2022-11-15T07:54:23.778Z,29.73
2022-11-15T07:56:50.362Z,29.98
2022-11-15T07:59:17.066Z,30.38
2022-11-15T08:01:43.798Z,28.67
2022-11-15T08:04:12.120Z,31.60
2022-11-15T08:06:39.017Z,30.55
2022-11-15T08:09:05.890Z,32.40
2022-11-15T08:11:32.523Z,31.95
2022-11-15T08:13:59.661Z,33.33
2022-11-15T08:16:26.205Z,31.52
2022-11-15T08:18:52.777Z,32.88
2022-11-15T08:21:21.338Z,31.23
2022-11-15T08:23:48.174Z,31.40
2022-11-15T08:26:15.577Z,30.35
2022-11-15T08:28:42.631Z,30.30
2022-11-15T08:31:16.157Z,31.50
2022-11-15T08:33:43.009Z,33.55
2022-11-15T08:36:14.553Z,36.25
2022-11-15T08:38:41.891Z,34.38
2022-11-15T08:41:14.717Z,35.38
2022-11-15T08:43:41.334Z,35.45
2022-11-15T08:46:12.843Z,39.15
2022-11-15T08:48:39.494Z,38.00
2022-11-15T08:51:06.633Z,38.30
2022-11-15T08:53:33.250Z,43.75
2022-11-15T08:55:59.840Z,41.80
2022-11-15T08:58:26.646Z,37.92
2022-11-15T09:00:53.443Z,37.88
2022-11-15T09:03:20.059Z,33.08
2022-11-15T09:05:50.070Z,31.10
2022-11-15T09:08:56.849Z,31.80
2022-11-15T09:11:05.843Z,32.08
2022-11-15T09:13:32.470Z,31.10
2022-11-15T09:16:01.428Z,32.25
2022-11-15T09:18:28.522Z,33.53
2022-11-15T09:20:58.026Z,32.95
2022-11-15T09:23:25.204Z,33.75
2022-11-15T09:25:52.917Z,32.03
2022-11-15T09:28:19.568Z,32.33
2022-11-15T09:30:46.161Z,33.08
2022-11-15T09:33:16.758Z,32.22
2022-11-15T09:35:43.427Z,33.85
2022-11-15T09:38:10.147Z,31.42
2022-11-15T09:40:38.979Z,34.47
2022-11-15T09:43:21.106Z,30.10
2022-11-15T09:46:02.331Z,29.48
2022-11-15T09:49:00.126Z,29.48
2022-11-15T09:51:35.115Z,29.40
2022-11-15T09:57:18.068Z,30.55
2022-11-15T10:00:23.728Z,31.88
2022-11-15T10:03:14.311Z,31.73
2022-11-15T10:05:42.977Z,29.80
2022-11-15T10:08:19.281Z,31.63
2022-11-15T10:10:49.231Z,33.28
2022-11-15T10:13:26.826Z,34.97
2022-11-15T10:16:00.627Z,34.05
2022-11-15T10:18:43.462Z,32.53
2022-11-15T10:21:18.904Z,35.05
2022-11-15T10:23:45.568Z,37.93
2022-11-15T10:26:16.542Z,36.00
2022-11-15T10:28:43.500Z,35.13
2022-11-15T10:31:23.329Z,38.42
2022-11-15T10:33:50.763Z,37.08
2022-11-15T10:36:20.247Z,36.28
2022-11-15T10:38:55.569Z,36.80
2022-11-15T10:41:32.391Z,34.90
2022-11-15T10:44:22.923Z,34.85
2022-11-15T10:47:06.798Z,34.53
2022-11-15T10:49:35.583Z,44.53
2022-11-15T10:52:05.454Z,39.60
2022-11-15T10:54:43.261Z,40.08
2022-11-15T10:57:20.331Z,40.63
2022-11-15T10:59:50.645Z,39.03
2022-11-15T11:02:33.637Z,38.42
2022-11-15T11:05:01.576Z,41.05
2022-11-15T11:07:31.038Z,35.58
2022-11-15T11:10:02.357Z,36.17
2022-11-15T11:12:32.485Z,33.05
2022-11-15T11:15:01.847Z,30.65
2022-11-15T11:17:52.474Z,34.53
2022-11-15T11:20:23.659Z,33.53
2022-11-15T11:23:25.499Z,32.08
2022-11-15T11:25:59.774Z,31.45
2022-11-15T11:28:41.801Z,30.67
2022-11-15T11:31:09.371Z,28.83
2022-11-15T11:33:58.914Z,32.83
2022-11-15T11:36:40.910Z,31.50
2022-11-15T11:39:35.765Z,32.63
2022-11-15T11:42:14.438Z,30.13
2022-11-15T11:45:16.646Z,28.85
2022-11-15T11:47:52.616Z,31.17
2022-11-15T11:50:22.478Z,32.53
2022-11-15T11:53:11.108Z,37.65
2022-11-15T11:55:49.215Z,35.38
2022-11-15T11:58:20.747Z,34.10
2022-11-15T12:00:54.510Z,34.60
2022-11-15T12:03:30.245Z,30.10
2022-11-15T12:06:01.089Z,29.30
2022-11-15T12:08:48.279Z,27.20
2022-11-15T12:11:20.503Z,25.73
2022-11-15T12:13:51.828Z,24.67
2022-11-15T12:16:28.487Z,25.95
2022-11-15T12:19:00.749Z,26.38
2022-11-15T12:21:28.645Z,25.20
2022-11-15T12:24:05.249Z,25.42
2022-11-15T12:29:10.660Z,24.63
2022-11-15T12:31:43.036Z,23.52
2022-11-15T12:34:43.107Z,23.40
2022-11-15T12:37:41.506Z,24.52
2022-11-15T12:40:23.687Z,23.83
2022-11-15T12:43:19.169Z,25.85
2022-11-15T12:45:46.851Z,25.25
2022-11-15T12:48:53.347Z,25.05
2022-11-15T12:51:41.861Z,22.20
2022-11-15T12:54:23.744Z,21.50
2022-11-15T12:57:30.134Z,21.98
2022-11-15T12:59:59.770Z,22.92
2022-11-15T13:02:30.296Z,23.00
2022-11-15T13:05:19.790Z,22.17
2022-11-15T13:07:49.549Z,22.42
2022-11-15T13:10:17.116Z,21.58
2022-11-15T13:12:43.693Z,22.35
2022-11-15T13:15:31.189Z,23.90
2022-11-15T13:17:58.234Z,23.73
2022-11-15T13:20:31.012Z,22.30
2022-11-15T13:23:03.217Z,22.10
2022-11-15T13:25:55.550Z,20.73
2022-11-15T13:28:28.889Z,23.00
2022-11-15T13:30:59.028Z,20.85
2022-11-15T13:33:37.247Z,21.20
2022-11-15T13:36:10.022Z,21.10
2022-11-15T13:38:39.601Z,22.95
2022-11-15T13:41:22.455Z,22.33
2022-11-15T13:43:51.186Z,23.65
2022-11-15T13:46:20.348Z,23.05
2022-11-15T13:48:52.108Z,25.13
2022-11-15T13:51:31.436Z,21.95
2022-11-15T13:54:20.592Z,29.92
2022-11-15T13:56:56.706Z,27.77
2022-11-15T13:59:28.209Z,28.60
2022-11-15T14:01:57.553Z,26.75
2022-11-15T14:04:27.227Z,27.85
2022-11-15T14:06:57.039Z,30.50
2022-11-15T14:09:23.744Z,29.75
2022-11-15T14:11:52.740Z,26.85
2022-11-15T14:14:22.309Z,28.77
2022-11-15T14:16:53.334Z,25.67
2022-11-15T14:19:21.117Z,24.25
2022-11-15T14:22:18.239Z,23.33
2022-11-15T14:24:47.171Z,25.95
2022-11-15T14:27:27.031Z,25.38
2022-11-15T14:29:54.342Z,23.85
2022-11-15T14:32:30.772Z,26.15
2022-11-15T14:34:59.232Z,22.55
2022-11-15T14:37:29.526Z,21.85
2022-11-15T14:39:56.705Z,21.23
2022-11-15T14:42:24.475Z,21.05
2022-11-15T14:44:51.544Z,21.38
2022-11-15T14:47:18.538Z,22.25
2022-11-15T14:49:45.570Z,20.70
2022-11-15T14:52:32.279Z,24.13
2022-11-15T14:55:00.315Z,27.80
2022-11-15T14:57:26.923Z,24.95
2022-11-15T14:59:53.652Z,22.95
2022-11-15T15:02:23.834Z,23.83
2022-11-15T15:04:51.267Z,21.83
2022-11-15T15:07:18.616Z,23.02
2022-11-15T15:09:46.164Z,21.70
2022-11-15T15:12:18.841Z,23.58
2022-11-15T15:14:47.132Z,28.20
2022-11-15T15:17:13.900Z,33.78
2022-11-15T15:19:40.727Z,35.22
2022-11-15T15:22:10.804Z,36.78
2022-11-15T15:24:38.054Z,24.27
2022-11-15T15:27:04.694Z,21.40
2022-11-15T15:29:31.359Z,20.30
2022-11-15T15:31:57.979Z,19.60
2022-11-15T15:34:24.603Z,18.85
2022-11-15T15:37:08.111Z,18.67
2022-11-15T15:39:34.731Z,17.77
2022-11-15T15:42:01.466Z,17.67
2022-11-15T15:44:28.040Z,17.08
2022-11-15T15:46:54.618Z,18.05
2022-11-15T15:49:21.192Z,15.30
2022-11-15T15:51:47.738Z,16.10
2022-11-15T15:54:14.306Z,16.90
2022-11-15T15:56:40.892Z,15.68
2022-11-15T15:59:07.495Z,16.23
2022-11-15T16:01:34.129Z,15.82
2022-11-15T16:04:00.745Z,16.00
2022-11-15T16:06:36.682Z,16.05
2022-11-15T16:09:20.216Z,16.58
2022-11-15T16:11:48.065Z,15.38
2022-11-15T16:14:14.699Z,16.98
2022-11-15T16:16:41.414Z,15.82
2022-11-15T16:19:11.436Z,17.80
2022-11-15T16:21:38.070Z,16.70
2022-11-15T16:24:05.523Z,16.85
2022-11-15T16:26:33.819Z,17.15
2022-11-15T16:29:00.416Z,16.67
2022-11-15T16:31:26.952Z,16.85
2022-11-15T16:33:53.679Z,17.98
2022-11-15T16:36:26.975Z,16.42
2022-11-15T16:38:56.439Z,17.48
2022-11-15T16:41:23.067Z,16.98
2022-11-15T16:43:49.875Z,18.08
2022-11-15T16:46:23.060Z,15.00
2022-11-15T16:48:50.446Z,16.42
2022-11-15T16:51:17.566Z,16.65
2022-11-15T16:53:44.731Z,16.08
2022-11-15T16:56:27.939Z,16.45
2022-11-15T16:58:58.520Z,16.85
2022-11-15T17:01:29.428Z,18.80
2022-11-15T17:03:56.667Z,18.95
2022-11-15T17:06:24.640Z,18.67
2022-11-15T17:08:54.702Z,17.42
2022-11-15T17:11:22.907Z,15.77
2022-11-15T17:13:49.881Z,16.48
2022-11-15T17:16:18.528Z,14.63
2022-11-15T17:18:45.678Z,14.88
2022-11-15T17:21:16.161Z,15.93
2022-11-15T17:23:43.677Z,16.20
2022-11-15T17:26:28.826Z,16.17
2022-11-15T17:28:58.044Z,14.82
2022-11-15T17:31:25.417Z,17.25
2022-11-15T17:33:55.344Z,16.50
2022-11-15T17:36:22.820Z,17.02
2022-11-15T17:38:58.107Z,15.82
2022-11-15T17:41:26.675Z,16.55
2022-11-15T17:43:53.464Z,16.45
2022-11-15T17:46:21.395Z,15.95
2022-11-15T17:48:48.770Z,16.73
2022-11-15T17:51:17.750Z,15.25
2022-11-15T17:53:46.709Z,17.05
2022-11-15T17:56:16.225Z,17.50
2022-11-15T17:58:48.515Z,17.23
2022-11-15T18:01:31.519Z,17.30
2022-11-15T18:04:00.672Z,26.42
2022-11-15T18:06:30.812Z,27.63
2022-11-15T18:08:58.422Z,27.75
2022-11-15T18:11:28.331Z,26.90
2022-11-15T18:13:57.856Z,25.95
2022-11-15T18:16:27.874Z,25.92
2022-11-15T18:18:55.123Z,24.27
2022-11-15T18:21:23.981Z,23.23
2022-11-15T18:23:54.129Z,23.15
2022-11-15T18:26:26.650Z,23.02
2022-11-15T18:28:56.686Z,24.60
2022-11-15T18:31:27.076Z,26.45
2022-11-15T18:33:54.326Z,23.88
2022-11-15T18:36:23.406Z,25.08
2022-11-15T18:38:55.769Z,28.33
2022-11-15T18:41:25.353Z,27.58
2022-11-15T18:43:52.710Z,27.85
2022-11-15T18:46:21.141Z,26.73
2022-11-15T18:48:50.536Z,27.40
2022-11-15T18:51:19.832Z,24.65
2022-11-15T18:53:46.814Z,23.02
2022-11-15T18:56:16.616Z,23.60
2022-11-15T18:58:46.831Z,25.85
2022-11-15T19:01:18.632Z,26.38
2022-11-15T19:03:48.517Z,24.88
2022-11-15T19:06:17.323Z,25.27
2022-11-15T19:08:46.207Z,28.92
2022-11-15T19:11:13.871Z,30.95
2022-11-15T19:13:41.139Z,32.22
2022-11-15T19:16:12.770Z,27.60
2022-11-15T19:18:39.842Z,22.77
2022-11-15T19:21:12.201Z,19.45
2022-11-15T19:23:42.759Z,17.23
2022-11-15T19:26:12.902Z,17.17
2022-11-15T19:28:40.145Z,18.13
2022-11-15T19:31:10.050Z,16.63
2022-11-15T19:33:37.634Z,17.60
2022-11-15T19:36:06.775Z,16.95
2022-11-15T19:38:34.920Z,15.75
2022-11-15T19:41:05.404Z,15.25
2022-11-15T19:43:33.153Z,14.88
2022-11-15T19:46:02.802Z,15.50
2022-11-15T19:48:30.723Z,14.77
2022-11-15T19:51:02.014Z,15.35
2022-11-15T19:53:34.424Z,14.27
2022-11-15T19:56:04.744Z,15.25
2022-11-15T19:58:31.445Z,15.30
2022-11-15T20:01:07.578Z,15.20
2022-11-15T20:03:36.595Z,15.55
2022-11-15T20:06:07.074Z,14.65
2022-11-15T20:08:35.430Z,15.45
2022-11-15T20:11:04.669Z,15.30
2022-11-15T20:13:31.991Z,14.85
2022-11-15T20:15:59.388Z,14.65
2022-11-15T20:18:28.039Z,14.00
2022-11-15T20:20:56.592Z,15.35
2022-11-15T20:23:23.313Z,14.93
2022-11-15T20:25:50.144Z,14.82
2022-11-15T20:28:20.586Z,13.40
2022-11-15T20:30:47.934Z,14.35
2022-11-15T20:33:14.986Z,14.02
2022-11-15T20:35:41.666Z,15.45
2022-11-15T20:38:08.465Z,13.35
2022-11-15T20:40:35.362Z,13.40
2022-11-15T20:43:02.610Z,13.80
2022-11-15T20:45:29.565Z,12.75
2022-11-15T20:47:57.127Z,12.25
2022-11-15T20:50:41.597Z,12.43
2022-11-15T20:53:15.677Z,12.90
2022-11-15T20:55:45.135Z,13.50
2022-11-15T20:58:11.871Z,13.57
2022-11-15T21:00:38.474Z,12.80
2022-11-15T21:03:07.047Z,11.82
2022-11-15T21:05:38.083Z,12.85
2022-11-15T21:08:04.924Z,13.02
2022-11-15T21:10:50.042Z,11.35
2022-11-15T21:13:16.655Z,11.27
2022-11-15T21:15:43.256Z,11.90
2022-11-15T21:18:09.932Z,11.80
2022-11-15T21:20:36.642Z,11.30
2022-11-15T21:23:03.440Z,11.48
2022-11-15T21:25:30.025Z,11.35
2022-11-15T21:27:56.766Z,10.85
2022-11-15T21:30:23.662Z,12.88
2022-11-15T21:32:50.350Z,12.20
2022-11-15T21:35:20.273Z,11.48
2022-11-15T21:37:50.547Z,10.65
2022-11-15T21:40:20.111Z,11.15
2022-11-15T21:42:46.817Z,11.85
2022-11-15T21:45:14.647Z,10.23
2022-11-15T21:47:45.767Z,10.82
2022-11-15T21:50:13.266Z,11.15
2022-11-15T21:52:40.678Z,11.25
2022-11-15T21:55:08.221Z,10.77
2022-11-15T21:57:34.877Z,11.52
2022-11-15T22:00:16.830Z,11.02
2022-11-15T22:02:43.421Z,10.73
2022-11-15T22:05:09.989Z,11.02
2022-11-15T22:07:36.763Z,10.30
2022-11-15T22:10:03.694Z,9.85
2022-11-15T22:12:30.301Z,10.30
2022-11-15T22:14:57.222Z,10.20
2022-11-15T22:17:24.705Z,9.32
2022-11-15T22:19:52.922Z,10.07
2022-11-15T22:22:19.878Z,9.73
2022-11-15T22:24:46.510Z,8.90
2022-11-15T22:27:13.129Z,9.02
2022-11-15T22:29:39.752Z,8.35
2022-11-15T22:32:06.549Z,9.43
2022-11-15T22:34:33.208Z,9.52
2022-11-15T22:37:19.909Z,9.35
2022-11-15T22:39:46.636Z,8.90
2022-11-15T22:42:13.433Z,8.85
2022-11-15T22:44:40.053Z,9.30
2022-11-15T22:47:06.733Z,8.65
2022-11-15T22:49:33.353Z,8.45
2022-11-15T22:51:59.970Z,8.88
2022-11-15T22:54:26.548Z,8.93
2022-11-15T22:56:53.399Z,9.38
2022-11-15T22:59:20.046Z,9.15
2022-11-15T23:01:46.781Z,8.93
2022-11-15T23:04:13.383Z,8.35
2022-11-15T23:06:40.041Z,8.55
2022-11-15T23:09:06.746Z,9.05
2022-11-15T23:11:48.894Z,9.07
2022-11-15T23:14:15.493Z,9.48
2022-11-15T23:16:42.157Z,8.93
2022-11-15T23:19:11.357Z,8.55
2022-11-15T23:21:56.121Z,8.55
2022-11-15T23:24:23.715Z,9.10
2022-11-15T23:26:57.122Z,9.32
2022-11-15T23:29:25.453Z,8.70
2022-11-15T23:32:09.250Z,8.75
2022-11-15T23:34:40.156Z,8.65
2022-11-15T23:37:08.371Z,8.75
2022-11-15T23:39:35.005Z,9.15
2022-11-15T23:42:06.056Z,9.55
2022-11-15T23:44:34.261Z,7.93
2022-11-15T23:47:00.914Z,9.65
2022-11-15T23:49:28.006Z,8.82
2022-11-15T23:51:54.653Z,9.13
2022-11-15T23:54:21.269Z,9.50
2022-11-15T23:56:47.875Z,8.23
2022-11-15T23:59:14.524Z,9.18
